Time;durP1;ratioP1;P1;durP2;ratioP2;P2;SDS_P1;SDS_P2;PMS_P1;PMS_P2;Temp;Humidity;BMP_temperature;BMP_pressure;BME280_temperature;BME280_humidity;BME280_pressure;Samples;Min_cycle;Max_cycle;Signal;HPM_P1;HPM_P2
2021/11/14 00:02:09;;;;;;;18.73;10.35;;;;;;;4.65;70.82;98748.88;5062658;28;20024;-69
2021/11/14 00:04:34;;;;;;;17.83;11.07;;;;;;;4.69;71.28;98743.75;5061847;28;20024;-69
2021/11/14 00:07:00;;;;;;;17.52;9.70;;;;;;;4.68;71.24;98736.69;5062782;28;20036;-69
2021/11/14 00:09:28;;;;;;;17.10;9.93;;;;;;;4.69;71.28;98741.84;5062923;28;20025;-69
2021/11/14 00:11:54;;;;;;;19.17;11.02;;;;;;;4.72;70.81;98749.50;5065595;28;20033;-69
2021/11/14 00:14:20;;;;;;;18.88;9.95;;;;;;;4.71;71.20;98738.91;5057519;28;20047;-69
2021/11/14 00:16:45;;;;;;;18.88;12.10;;;;;;;4.76;70.65;98744.41;5054429;28;20178;-69
2021/11/14 00:19:11;;;;;;;16.90;9.48;;;;;;;4.75;70.99;98740.03;5055211;28;20582;-69
2021/11/14 00:21:41;;;;;;;20.23;11.48;;;;;;;4.80;71.25;98747.44;5062039;28;20081;-69
2021/11/14 00:24:07;;;;;;;83.18;36.75;;;;;;;4.85;71.23;98731.19;5065985;28;20028;-69
2021/11/14 00:26:33;;;;;;;104.78;46.00;;;;;;;4.85;70.90;98742.91;5066991;28;20032;-70
2021/11/14 00:28:59;;;;;;;76.93;29.52;;;;;;;4.88;71.00;98736.97;5066026;28;20043;-69
2021/11/14 00:31:24;;;;;;;61.70;22.58;;;;;;;4.89;70.55;98741.31;5067372;28;20044;-69
2021/11/14 00:33:51;;;;;;;37.63;14.57;;;;;;;4.92;71.31;98742.72;5065416;28;20028;-69
2021/11/14 00:36:23;;;;;;;43.97;15.40;;;;;;;4.88;70.80;98747.00;5060750;28;20114;-70
2021/11/14 00:38:51;;;;;;;46.17;17.70;;;;;;;4.86;70.87;98741.84;5058811;28;20387;-69
2021/11/14 00:41:18;;;;;;;35.50;14.77;;;;;;;4.89;71.11;98743.22;5092060;28;20025;-69
2021/11/14 00:43:43;;;;;;;45.65;17.98;;;;;;;4.88;71.17;98741.56;5074687;28;20024;-69
2021/11/14 00:46:10;;;;;;;35.83;14.98;;;;;;;4.89;71.19;98746.75;5093311;28;20030;-70
2021/11/14 00:48:42;;;;;;;34.08;15.10;;;;;;;4.91;70.76;98744.59;5093383;28;20020;-70
2021/11/14 00:51:15;;;;;;;28.48;13.15;;;;;;;4.93;70.74;98744.38;5093162;28;20028;-69
2021/11/14 00:53:41;;;;;;;28.95;13.88;;;;;;;4.96;70.94;98735.72;5091546;28;20040;-70
2021/11/14 00:56:08;;;;;;;35.08;17.77;;;;;;;5.01;70.90;98741.22;5076920;28;20030;-69
2021/11/14 00:58:33;;;;;;;20.23;11.57;;;;;;;5.01;70.86;98743.94;5075241;28;20028;-70
2021/11/14 01:01:00;;;;;;;26.50;12.48;;;;;;;5.00;70.37;98742.28;5093887;28;20020;-69
2021/11/14 01:03:26;;;;;;;26.20;13.18;;;;;;;4.95;70.78;98738.66;5093092;28;20032;-69
2021/11/14 01:05:51;;;;;;;24.40;12.88;;;;;;;4.93;70.85;98744.38;5093841;28;20035;-68
2021/11/14 01:08:17;;;;;;;22.98;12.05;;;;;;;4.91;70.76;98744.59;5092201;28;20020;-69
2021/11/14 01:10:47;;;;;;;28.48;15.43;;;;;;;4.92;70.28;98748.16;5092499;28;20035;-69
2021/11/14 01:13:13;;;;;;;22.38;11.68;;;;;;;4.87;71.43;98746.19;5092462;28;20054;-69
2021/11/14 01:15:39;;;;;;;21.05;12.23;;;;;;;4.84;70.70;98748.59;5074141;28;20036;-69
2021/11/14 01:18:05;;;;;;;25.30;14.23;;;;;;;4.82;70.81;98748.00;5092878;28;20036;-70
2021/11/14 01:20:36;;;;;;;20.17;11.50;;;;;;;4.84;71.42;98754.84;5093226;28;20020;-70
2021/11/14 01:23:04;;;;;;;21.00;12.15;;;;;;;4.85;71.23;98753.78;5093545;28;20032;-70
2021/11/14 01:25:30;;;;;;;24.27;13.98;;;;;;;4.83;71.32;98758.66;5091932;28;20024;-70
2021/11/14 01:27:56;;;;;;;20.33;12.27;;;;;;;4.86;70.82;98760.88;5092177;28;20032;-71
2021/11/14 01:30:25;;;;;;;19.63;11.90;;;;;;;4.90;70.73;98761.16;5091893;28;20044;-70
2021/11/14 01:32:53;;;;;;;19.95;12.43;;;;;;;4.89;70.75;98760.34;5092009;28;20035;-70
2021/11/14 01:35:20;;;;;;;19.73;12.18;;;;;;;4.84;71.17;98756.72;5091194;28;20020;-70
2021/11/14 01:37:47;;;;;;;14.75;9.35;;;;;;;4.83;70.90;98757.81;5075164;28;20486;-70
2021/11/14 01:40:17;;;;;;;21.25;12.70;;;;;;;4.84;70.84;98754.03;5092761;28;20024;-70
2021/11/14 01:42:42;;;;;;;16.67;9.23;;;;;;;4.82;70.52;98759.72;5093023;28;20020;-71
2021/11/14 01:45:09;;;;;;;17.83;9.85;;;;;;;4.76;70.96;98761.53;5092214;28;20051;-70
2021/11/14 01:47:35;;;;;;;16.23;9.35;;;;;;;4.78;71.46;98758.56;5074717;28;20031;-71
2021/11/14 01:50:01;;;;;;;16.20;9.98;;;;;;;4.80;71.31;98755.59;5092243;28;20024;-70
2021/11/14 01:52:30;;;;;;;14.75;9.38;;;;;;;4.83;71.71;98752.38;5093643;28;20038;-70
2021/11/14 01:54:56;;;;;;;17.00;9.25;;;;;;;4.75;70.95;98753.63;5093150;28;20024;-71
2021/11/14 01:57:22;;;;;;;13.90;8.68;;;;;;;4.74;71.09;98749.28;5093650;28;20384;-71
2021/11/14 01:59:49;;;;;;;15.45;10.02;;;;;;;4.73;71.51;98750.34;5091450;28;20036;-70
2021/11/14 02:02:14;;;;;;;16.50;9.98;;;;;;;4.72;71.66;98752.22;5073815;28;20020;-70
2021/11/14 02:04:41;;;;;;;17.42;9.98;;;;;;;4.75;71.47;98759.06;5073664;28;20055;-70
2021/11/14 02:07:09;;;;;;;17.55;10.77;;;;;;;4.77;71.59;98756.94;5089751;28;20031;-70
2021/11/14 02:09:35;;;;;;;18.20;11.15;;;;;;;4.82;71.96;98751.56;5092534;28;20455;-70
2021/11/14 02:12:03;;;;;;;15.43;10.18;;;;;;;4.89;71.92;98754.91;5094122;28;20032;-70
2021/11/14 02:14:29;;;;;;;20.23;11.32;;;;;;;4.93;71.30;98766.09;5093398;28;20027;-70
2021/11/14 02:16:55;;;;;;;17.73;10.07;;;;;;;4.93;71.94;98768.81;5088710;28;20384;-71
2021/11/14 02:19:21;;;;;;;18.88;11.38;;;;;;;4.87;71.26;98765.22;5093405;28;20484;-71
2021/11/14 02:21:47;;;;;;;19.45;12.23;;;;;;;4.89;71.54;98773.91;5074882;28;20028;-71
2021/11/14 02:24:13;;;;;;;16.17;9.73;;;;;;;4.93;71.84;98771.53;5093135;28;20028;-71
2021/11/14 02:26:39;;;;;;;21.17;11.80;;;;;;;4.91;71.49;98770.97;5092049;28;20136;-71
2021/11/14 02:29:04;;;;;;;17.27;11.60;;;;;;;4.84;71.69;98768.44;5092636;28;20323;-70
2021/11/14 02:31:31;;;;;;;16.30;10.75;;;;;;;4.83;71.62;98777.66;5091765;28;20032;-71
2021/11/14 02:33:57;;;;;;;18.15;9.52;;;;;;;4.80;71.50;98777.31;5092164;28;20034;-70
2021/11/14 02:36:24;;;;;;;13.75;8.48;;;;;;;4.74;72.20;98779.97;5091455;28;20036;-70
2021/11/14 02:38:50;;;;;;;16.92;10.70;;;;;;;4.70;71.99;98778.81;5093135;28;20058;-70
2021/11/14 02:41:16;;;;;;;16.00;9.88;;;;;;;4.70;72.15;98781.53;5091648;28;20043;-70
2021/11/14 02:43:44;;;;;;;17.83;10.90;;;;;;;4.73;71.84;98778.31;5091401;28;20024;-70
2021/11/14 02:46:11;;;;;;;17.05;9.65;;;;;;;4.77;72.54;98782.19;5088375;28;20553;-70
2021/11/14 02:48:37;;;;;;;15.32;9.18;;;;;;;4.77;72.47;98781.38;5091449;28;20028;-70
2021/11/14 02:51:07;;;;;;;17.27;10.82;;;;;;;4.72;72.05;98778.59;5092082;28;20532;-70
2021/11/14 02:53:34;;;;;;;16.90;10.32;;;;;;;4.69;71.97;98782.59;5098864;28;20069;-70
2021/11/14 02:55:59;;;;;;;15.52;9.95;;;;;;;4.73;72.26;98789.19;5096273;28;20115;-69
2021/11/14 02:58:28;;;;;;;15.55;9.50;;;;;;;4.72;72.53;98787.53;5087490;28;20099;-69
2021/11/14 03:01:08;;;;;;;15.98;9.45;;;;;;;4.68;72.13;98786.44;5091392;28;20691;-69
2021/11/14 03:03:33;;;;;;;12.95;9.05;;;;;;;4.67;72.74;98789.38;5090789;28;20024;-70
2021/11/14 03:06:00;;;;;;;21.15;12.15;;;;;;;4.66;72.14;98785.00;5091285;28;20077;-70
2021/11/14 03:08:26;;;;;;;20.55;11.80;;;;;;;4.70;71.96;98792.41;5093693;28;20020;-69
2021/11/14 03:10:52;;;;;;;19.27;12.05;;;;;;;4.71;72.54;98791.34;5073007;28;20039;-69
2021/11/14 03:13:20;;;;;;;17.92;10.23;;;;;;;4.71;72.75;98798.69;5093624;28;20024;-68
2021/11/14 03:15:56;;;;;;;18.98;10.65;;;;;;;4.70;72.16;98799.75;5073057;28;20035;-70
2021/11/14 03:18:22;;;;;;;22.20;12.05;;;;;;;4.74;72.21;98803.63;5088933;28;20023;-69
2021/11/14 03:20:51;;;;;;;21.40;12.75;;;;;;;4.82;72.54;98802.34;5091132;28;20059;-69
2021/11/14 03:23:18;;;;;;;22.95;12.45;;;;;;;4.87;73.02;98797.84;5091556;28;20789;-69
2021/11/14 03:25:45;;;;;;;23.05;12.90;;;;;;;4.90;72.87;98807.38;5091332;28;20059;-69
2021/11/14 03:28:12;;;;;;;20.75;11.82;;;;;;;4.90;72.57;98805.47;5091063;28;20104;-69
2021/11/14 03:30:38;;;;;;;23.17;13.18;;;;;;;4.84;72.72;98811.09;5072770;28;20032;-69
2021/11/14 03:33:08;;;;;;;23.90;13.57;;;;;;;4.77;72.54;98812.09;5091178;28;20034;-69
2021/11/14 03:35:48;;;;;;;27.40;15.23;;;;;;;4.81;72.64;98811.59;5091102;28;20028;-69
2021/11/14 03:38:16;;;;;;;27.17;14.50;;;;;;;4.81;72.91;98814.31;5090441;28;20050;-69
2021/11/14 03:40:42;;;;;;;27.52;14.40;;;;;;;4.82;72.32;98821.38;5088523;28;20032;-70
2021/11/14 03:43:09;;;;;;;28.80;15.70;;;;;;;4.84;72.46;98821.97;5090095;28;20068;-69
2021/11/14 03:45:35;;;;;;;29.35;15.35;;;;;;;4.85;72.69;98810.84;5090672;28;20055;-69
2021/11/14 03:48:02;;;;;;;25.05;12.52;;;;;;;4.90;73.20;98810.09;5072842;28;20024;-69
2021/11/14 03:50:28;;;;;;;33.45;16.65;;;;;;;4.95;72.38;98814.75;5090433;28;20111;-69
2021/11/14 03:52:54;;;;;;;32.13;16.10;;;;;;;4.99;72.92;98807.75;5090842;28;20644;-69
2021/11/14 03:55:20;;;;;;;33.92;16.92;;;;;;;5.01;72.57;98811.03;5090816;28;20114;-69
2021/11/14 03:57:46;;;;;;;36.67;17.13;;;;;;;5.01;72.80;98803.72;5091688;28;20042;-69
2021/11/14 04:00:23;;;;;;;32.85;16.42;;;;;;;5.07;72.99;98816.31;5076435;28;20145;-69
2021/11/14 04:02:51;;;;;;;35.17;17.92;;;;;;;5.02;73.10;98802.66;5093552;28;20031;-69
2021/11/14 04:05:18;;;;;;;39.30;18.27;;;;;;;4.98;72.78;98812.38;5076422;28;20427;-68
2021/11/14 04:07:44;;;;;;;42.60;20.15;;;;;;;4.97;72.77;98810.75;5095410;28;20028;-69
2021/11/14 04:10:10;;;;;;;34.72;17.67;;;;;;;5.01;73.00;98814.59;5094705;28;20798;-68
2021/11/14 04:12:37;;;;;;;39.13;17.80;;;;;;;5.02;72.71;98804.53;5076300;28;20031;-69
2021/11/14 04:15:07;;;;;;;34.70;16.50;;;;;;;5.02;72.16;98812.69;5095311;28;20020;-68
2021/11/14 04:17:34;;;;;;;37.45;17.70;;;;;;;4.99;72.39;98811.31;5087942;28;20078;-69
2021/11/14 04:20:00;;;;;;;37.28;19.08;;;;;;;5.01;72.63;98811.88;5075910;28;20027;-70
2021/11/14 04:22:25;;;;;;;35.65;17.67;;;;;;;5.05;72.37;98817.63;5094114;28;20689;-69
2021/11/14 04:24:51;;;;;;;36.30;18.85;;;;;;;5.05;73.10;98806.75;5093810;28;20059;-69
2021/11/14 04:27:16;;;;;;;37.55;18.48;;;;;;;5.06;72.52;98814.69;5093159;28;20066;-70
2021/11/14 04:29:42;;;;;;;34.10;17.30;;;;;;;5.06;72.39;98819.28;5093675;28;20436;-69
2021/11/14 04:32:08;;;;;;;30.10;15.27;;;;;;;5.07;72.57;98827.19;5093847;28;20703;-70
2021/11/14 04:34:33;;;;;;;36.17;17.98;;;;;;;5.04;72.92;98819.53;5094021;28;20388;-69
2021/11/14 04:36:59;;;;;;;34.17;16.85;;;;;;;5.03;72.97;98823.34;5093833;28;20024;-69
2021/11/14 04:39:24;;;;;;;34.70;17.15;;;;;;;5.02;72.96;98826.28;5095510;28;20031;-69
2021/11/14 04:41:50;;;;;;;30.58;15.57;;;;;;;4.99;72.94;98830.34;5093848;28;20040;-69
2021/11/14 04:44:15;;;;;;;35.17;16.85;;;;;;;4.97;72.35;98837.09;5093233;28;20034;-69
2021/11/14 04:46:41;;;;;;;35.83;17.40;;;;;;;4.92;72.95;98835.13;5094140;28;20046;-69
2021/11/14 04:49:06;;;;;;;38.28;18.27;;;;;;;4.92;72.84;98835.13;5094201;28;20028;-68
2021/11/14 04:51:32;;;;;;;41.53;20.55;;;;;;;4.95;72.64;98837.34;5093433;28;20039;-69
2021/11/14 04:53:57;;;;;;;39.85;19.20;;;;;;;4.98;72.87;98841.44;5091547;28;20367;-69
2021/11/14 04:56:23;;;;;;;37.72;18.38;;;;;;;4.99;72.72;98841.22;5093773;28;20028;-70
2021/11/14 04:58:49;;;;;;;36.42;17.73;;;;;;;5.03;72.77;98842.38;5093891;28;20384;-69
2021/11/14 05:01:15;;;;;;;31.75;15.52;;;;;;;5.05;72.69;98836.66;5092892;28;20024;-69
2021/11/14 05:03:40;;;;;;;32.90;16.33;;;;;;;5.02;72.79;98848.88;5091351;28;20028;-69
2021/11/14 05:06:09;;;;;;;30.13;15.02;;;;;;;5.04;72.39;98846.72;5094080;28;20468;-70
2021/11/14 05:08:35;;;;;;;27.65;14.60;;;;;;;5.03;72.60;98853.25;5090959;28;20020;-69
2021/11/14 05:11:01;;;;;;;27.67;13.85;;;;;;;5.03;73.24;98845.09;5092162;28;20056;-70
2021/11/14 05:13:26;;;;;;;27.00;13.63;;;;;;;5.06;72.54;98850.03;5094836;28;20429;-70
2021/11/14 05:15:51;;;;;;;24.98;14.35;;;;;;;5.07;72.67;98850.84;5093232;28;20695;-70
2021/11/14 05:18:17;;;;;;;24.10;14.05;;;;;;;5.07;72.82;98853.56;5093602;28;20020;-69
2021/11/14 05:20:43;;;;;;;27.00;15.18;;;;;;;5.04;72.32;98860.31;5092970;28;20492;-69
2021/11/14 05:23:13;;;;;;;25.98;14.55;;;;;;;5.00;72.82;98859.16;5093229;28;20026;-70
2021/11/14 05:25:39;;;;;;;28.20;14.85;;;;;;;5.02;72.58;98862.47;5090675;28;20026;-69
2021/11/14 05:28:05;;;;;;;26.52;14.18;;;;;;;5.06;72.54;98858.19;5092691;28;20016;-70
2021/11/14 05:30:30;;;;;;;24.02;14.27;;;;;;;5.02;72.80;98865.19;5092918;28;20038;-70
2021/11/14 05:32:56;;;;;;;25.20;14.43;;;;;;;5.05;72.68;98861.97;5093812;28;20030;-70
2021/11/14 05:35:22;;;;;;;26.55;14.70;;;;;;;5.10;72.86;98873.97;5093385;28;20475;-69
2021/11/14 05:37:47;;;;;;;24.23;13.38;;;;;;;5.06;72.50;98871.78;5093344;28;20036;-70
2021/11/14 05:40:12;;;;;;;27.27;15.25;;;;;;;5.06;72.71;98870.94;5093147;28;20059;-70
2021/11/14 05:42:38;;;;;;;27.42;15.30;;;;;;;5.07;73.21;98876.13;5092825;28;20353;-70
2021/11/14 05:45:05;;;;;;;28.27;15.57;;;;;;;5.05;72.68;98872.00;5092947;28;20020;-69
2021/11/14 05:47:31;;;;;;;26.70;15.68;;;;;;;5.07;72.59;98878.84;5092673;28;20032;-69
2021/11/14 05:49:56;;;;;;;23.88;14.18;;;;;;;5.07;72.34;98878.84;5074069;28;20026;-70
2021/11/14 05:52:22;;;;;;;22.38;12.82;;;;;;;5.08;72.46;98887.81;5092751;28;20030;-69
2021/11/14 05:54:48;;;;;;;24.15;13.75;;;;;;;5.05;72.38;98889.16;5092939;28;20480;-69
2021/11/14 05:57:14;;;;;;;24.73;13.02;;;;;;;5.07;72.63;98900.59;5091752;28;20066;-69
2021/11/14 05:59:59;;;;;;;24.35;13.02;;;;;;;5.06;72.77;98903.56;5074105;28;20062;-69
2021/11/14 06:07:34;;;;;;;22.83;12.57;;;;;;;5.06;72.53;98918.00;5094984;28;20028;-69
2021/11/14 06:10:01;;;;;;;25.55;14.13;;;;;;;5.06;72.61;98915.28;5086705;28;20035;-70
2021/11/14 06:12:27;;;;;;;23.48;13.48;;;;;;;5.10;72.85;98926.47;5092869;28;20028;-69
2021/11/14 06:14:53;;;;;;;25.55;13.93;;;;;;;5.09;72.39;98926.72;5093688;28;20020;-70
2021/11/14 06:17:20;;;;;;;23.30;13.20;;;;;;;5.11;72.56;98927.28;5093204;28;20031;-69
2021/11/14 06:19:49;;;;;;;24.65;13.77;;;;;;;5.05;72.57;98932.66;5093749;28;20028;-69
2021/11/14 06:22:18;;;;;;;27.37;15.10;;;;;;;5.01;72.97;98939.66;5094390;28;20032;-70
2021/11/14 06:24:45;;;;;;;26.33;14.50;;;;;;;5.00;72.70;98939.88;5097339;28;20024;-70
2021/11/14 06:27:10;;;;;;;27.75;15.43;;;;;;;4.99;72.88;98947.22;5098489;28;20019;-69
2021/11/14 06:29:36;;;;;;;26.42;15.65;;;;;;;5.02;72.64;98949.47;5110285;28;20123;-69
2021/11/14 06:32:02;;;;;;;24.48;13.57;;;;;;;5.02;72.48;98952.19;5099885;28;20055;-70
2021/11/14 06:34:27;;;;;;;28.50;15.57;;;;;;;4.98;72.88;98956.47;5093307;28;20028;-69
2021/11/14 06:36:53;;;;;;;31.08;17.73;;;;;;;5.00;72.71;98957.03;5075009;28;20027;-70
2021/11/14 06:39:19;;;;;;;38.28;20.75;;;;;;;5.07;72.73;98963.13;5075367;28;20472;-70
2021/11/14 06:41:45;;;;;;;56.95;27.92;;;;;;;5.12;73.11;98961.53;5093645;28;20073;-69
2021/11/14 06:44:11;;;;;;;69.85;31.63;;;;;;;5.12;72.84;98959.66;5092733;28;20028;-69
2021/11/14 06:46:37;;;;;;;88.35;39.10;;;;;;;5.09;72.46;98975.66;5092686;28;20103;-70
2021/11/14 06:49:04;;;;;;;64.03;28.85;;;;;;;5.11;72.63;98978.94;5093326;28;20061;-69
2021/11/14 06:51:30;;;;;;;38.75;18.75;;;;;;;5.14;72.32;98975.72;5113446;28;20383;-70
2021/11/14 06:53:56;;;;;;;29.77;16.33;;;;;;;5.18;72.84;98968.72;5113235;28;20024;-69
2021/11/14 06:56:22;;;;;;;30.42;15.45;;;;;;;5.20;72.38;98989.16;5089473;28;20384;-69
2021/11/14 06:58:48;;;;;;;33.85;18.63;;;;;;;5.23;72.88;98987.84;5092640;28;20059;-70
2021/11/14 07:01:14;;;;;;;40.00;22.17;;;;;;;5.25;72.47;98974.81;5092185;28;20032;-69
2021/11/14 07:03:39;;;;;;;37.63;21.33;;;;;;;5.26;72.68;98981.09;5091966;28;20035;-70
2021/11/14 07:06:05;;;;;;;32.95;19.42;;;;;;;5.27;72.39;98988.19;5113088;28;20027;-70
2021/11/14 07:08:30;;;;;;;29.15;17.92;;;;;;;5.30;72.92;98996.66;5094947;28;20369;-70
2021/11/14 07:10:56;;;;;;;27.92;15.48;;;;;;;5.32;72.73;98997.22;5091891;28;20035;-70
2021/11/14 07:13:21;;;;;;;27.45;15.60;;;;;;;5.28;72.65;99006.16;5093013;28;20028;-70
2021/11/14 07:15:47;;;;;;;25.48;14.95;;;;;;;5.22;72.27;98997.91;5092649;28;20062;-70
2021/11/14 07:18:12;;;;;;;28.10;16.40;;;;;;;5.18;72.37;99007.63;5092524;28;20036;-70
2021/11/14 07:20:38;;;;;;;25.83;14.35;;;;;;;5.21;72.75;99003.56;5074823;28;20028;-70
2021/11/14 07:23:04;;;;;;;32.15;17.58;;;;;;;5.25;72.50;98999.28;5106529;28;20028;-70
2021/11/14 07:25:30;;;;;;;29.90;16.15;;;;;;;5.25;72.28;99006.63;5092759;28;20357;-69
2021/11/14 07:27:56;;;;;;;30.85;16.42;;;;;;;5.28;72.36;98998.78;5092242;28;20098;-70
2021/11/14 07:30:23;;;;;;;30.88;16.63;;;;;;;5.32;72.34;99002.66;5074269;28;20078;-70
2021/11/14 07:32:49;;;;;;;31.95;16.83;;;;;;;5.37;72.32;98999.19;5091930;28;20032;-70
2021/11/14 07:35:17;;;;;;;28.73;15.48;;;;;;;5.38;72.19;99000.03;5092102;28;20016;-69
2021/11/14 07:37:43;;;;;;;30.85;16.35;;;;;;;5.41;72.55;99004.97;5091015;28;20111;-70
2021/11/14 07:40:11;;;;;;;34.08;17.65;;;;;;;5.44;72.72;99002.56;5092091;28;20028;-69
2021/11/14 07:42:37;;;;;;;35.72;18.83;;;;;;;5.50;72.55;99001.59;5087809;28;20020;-70
2021/11/14 07:45:07;;;;;;;32.45;18.67;;;;;;;5.52;72.36;99004.03;5092372;28;20541;-70
2021/11/14 07:47:33;;;;;;;26.23;15.23;;;;;;;5.49;71.83;98999.13;5073645;28;20761;-70
2021/11/14 07:49:58;;;;;;;27.33;14.55;;;;;;;5.51;71.99;99003.22;5091120;28;20498;-70
2021/11/14 07:52:25;;;;;;;22.55;12.95;;;;;;;5.55;72.38;99003.53;5091865;28;20024;-70
2021/11/14 07:54:51;;;;;;;28.10;15.70;;;;;;;5.58;72.22;99013.94;5091796;28;20028;-70
2021/11/14 07:57:17;;;;;;;28.10;14.13;;;;;;;5.59;71.92;99014.78;5091796;28;20043;-70
2021/11/14 07:59:42;;;;;;;25.70;14.63;;;;;;;5.56;71.54;99007.91;5091699;28;20032;-70
2021/11/14 08:02:09;;;;;;;28.60;16.48;;;;;;;5.55;72.04;99014.44;5090884;28;20028;-69
2021/11/14 08:04:35;;;;;;;32.70;17.80;;;;;;;5.57;71.70;99014.19;5091770;28;20503;-69
2021/11/14 08:07:00;;;;;;;30.67;17.10;;;;;;;5.59;71.71;99007.41;5091735;28;20032;-70
2021/11/14 08:09:26;;;;;;;31.40;17.55;;;;;;;5.65;71.91;99011.88;5091858;28;20028;-69
2021/11/14 08:11:52;;;;;;;32.45;17.85;;;;;;;5.68;71.59;99013.28;5066452;28;20414;-70
2021/11/14 08:14:17;;;;;;;32.38;16.67;;;;;;;5.68;71.39;99016.00;5091762;28;20031;-70
2021/11/14 08:16:43;;;;;;;33.40;18.02;;;;;;;5.65;71.60;99011.88;5090840;28;20392;-70
2021/11/14 08:19:08;;;;;;;34.40;17.13;;;;;;;5.65;71.37;99021.94;5091327;28;20093;-69
2021/11/14 08:21:34;;;;;;;39.10;19.95;;;;;;;5.69;71.82;99012.19;5090297;28;20576;-69
2021/11/14 08:23:59;;;;;;;36.40;18.95;;;;;;;5.70;71.27;99024.72;5091093;28;20036;-68
2021/11/14 08:26:25;;;;;;;32.53;18.13;;;;;;;5.68;71.48;99023.31;5091502;28;20028;-69
2021/11/14 08:28:50;;;;;;;34.83;18.73;;;;;;;5.73;71.27;99028.84;5091078;28;20044;-69
2021/11/14 08:31:20;;;;;;;31.42;18.15;;;;;;;5.80;71.39;99032.22;5091390;28;20047;-70
2021/11/14 08:33:48;;;;;;;27.02;14.40;;;;;;;5.84;71.33;99030.63;5074411;28;20472;-69
2021/11/14 08:36:14;;;;;;;28.25;14.50;;;;;;;5.90;71.92;99031.53;5090909;28;20028;-69
2021/11/14 08:38:40;;;;;;;28.20;14.98;;;;;;;5.92;71.68;99035.63;5091340;28;20046;-70
2021/11/14 08:41:06;;;;;;;26.63;14.95;;;;;;;5.95;71.61;99026.97;5073191;28;20462;-70
2021/11/14 08:43:32;;;;;;;28.13;15.40;;;;;;;6.05;71.24;99030.94;5092067;28;20071;-69
2021/11/14 08:45:58;;;;;;;36.53;20.77;;;;;;;6.03;71.20;99039.38;5077055;28;20028;-69
2021/11/14 08:48:25;;;;;;;40.95;21.52;;;;;;;6.02;71.06;99037.72;5094467;28;20035;-70
2021/11/14 08:50:55;;;;;;;47.78;25.25;;;;;;;6.00;70.95;99041.72;5095623;28;20020;-69
2021/11/14 08:53:20;;;;;;;;;;;;;;;6.00;71.00;99047.16;5095519;28;20499;-69
2021/11/14 08:55:46;;;;;;;29.40;14.02;;;;;;;5.96;71.08;99055.03;5094772;28;19915;-69
2021/11/14 08:58:12;;;;;;;40.88;16.77;;;;;;;5.97;70.96;99038.44;5094658;28;20423;-69
2021/11/14 09:00:38;;;;;;;39.80;17.05;;;;;;;6.03;70.73;99052.16;5094686;28;20020;-69
2021/11/14 09:03:05;;;;;;;61.50;23.85;;;;;;;6.04;70.89;99051.91;5094970;28;20031;-70
2021/11/14 09:05:32;;;;;;;100.95;36.88;;;;;;;6.04;70.89;99048.34;5094896;28;20388;-70
2021/11/14 09:08:01;;;;;;;54.72;21.58;;;;;;;6.10;70.92;99047.34;5094486;28;20027;-70
2021/11/14 09:10:28;;;;;;;52.88;20.88;;;;;;;6.13;70.76;99056.91;5095206;28;20036;-70
2021/11/14 09:12:55;;;;;;;66.07;24.52;;;;;;;6.08;70.47;99066.69;5077092;28;20024;-70
2021/11/14 09:15:21;;;;;;;39.72;19.38;;;;;;;6.08;70.71;99049.50;5076749;28;20103;-70
2021/11/14 09:17:47;;;;;;;30.40;16.33;;;;;;;6.08;71.06;99053.06;5093983;28;20024;-70
2021/11/14 09:20:13;;;;;;;32.25;18.08;;;;;;;6.07;70.20;99051.41;5094431;28;20035;-71
2021/11/14 09:22:39;;;;;;;28.88;15.80;;;;;;;6.05;70.45;99059.00;5094736;28;20070;-68
2021/11/14 09:25:09;;;;;;;30.60;17.27;;;;;;;6.11;70.72;99060.69;5094234;28;20124;-68
2021/11/14 09:27:35;;;;;;;24.58;14.48;;;;;;;6.16;70.52;99057.22;5095625;28;20028;-71
2021/11/14 09:30:00;;;;;;;29.65;15.52;;;;;;;6.17;70.50;99063.50;5093961;28;20145;-69
2021/11/14 09:32:27;;;;;;;31.17;17.25;;;;;;;6.22;70.68;99069.00;5094840;28;20089;-70
2021/11/14 09:34:52;;;;;;;31.10;15.93;;;;;;;6.18;70.14;99074.16;5094629;28;20054;-71
2021/11/14 09:37:17;;;;;;;29.20;15.88;;;;;;;6.15;70.10;99077.38;5094336;28;20027;-71
2021/11/14 09:39:43;;;;;;;40.65;19.13;;;;;;;6.15;70.40;99071.09;5093911;28;20161;-71
2021/11/14 09:42:09;;;;;;;41.78;21.23;;;;;;;6.14;70.41;99070.28;5094346;28;20541;-70
2021/11/14 09:44:34;;;;;;;35.97;17.15;;;;;;;6.17;70.21;99064.31;5093729;28;20035;-70
2021/11/14 09:47:02;;;;;;;31.83;16.38;;;;;;;6.22;70.26;99069.00;5094534;28;20384;-71
2021/11/14 09:49:30;;;;;;;25.25;14.25;;;;;;;6.25;70.21;99066.63;5094146;28;20024;-71
2021/11/14 09:51:58;;;;;;;33.08;16.13;;;;;;;6.21;70.42;99070.94;5104463;28;20551;-70
2021/11/14 09:54:25;;;;;;;30.00;16.08;;;;;;;6.18;70.01;99071.44;5096971;28;20081;-71
2021/11/14 09:56:53;;;;;;;31.30;16.38;;;;;;;6.21;70.11;99086.44;5093023;28;20031;-70
2021/11/14 09:59:19;;;;;;;25.55;14.20;;;;;;;6.26;70.14;99072.88;5083037;28;20491;-73
2021/11/14 10:01:47;;;;;;;25.30;13.45;;;;;;;6.31;70.48;99080.31;5101560;28;20356;-73
2021/11/14 10:04:13;;;;;;;28.25;15.07;;;;;;;6.35;70.36;99078.69;5104942;28;20008;-74
2021/11/14 10:06:38;;;;;;;29.48;14.93;;;;;;;6.40;69.99;99081.50;5093923;28;20028;-73
2021/11/14 10:09:08;;;;;;;28.25;16.38;;;;;;;6.39;70.18;99083.41;5092688;28;20077;-73
2021/11/14 10:11:40;;;;;;;;;;;;;;;6.37;70.25;99082.00;5067752;28;20111;-73
2021/11/14 10:14:07;;;;;;;25.35;14.40;;;;;;;6.38;69.67;99086.38;5056921;28;19943;-74
2021/11/14 10:16:35;;;;;;;29.52;15.85;;;;;;;6.36;69.90;99085.78;5070824;28;20025;-71
2021/11/14 10:19:06;;;;;;;29.23;15.65;;;;;;;6.34;69.84;99086.06;5055118;28;20561;-70
2021/11/14 10:21:34;;;;;;;33.47;16.55;;;;;;;6.30;69.55;99086.84;5063926;28;20032;-69
2021/11/14 10:24:05;;;;;;;30.77;17.15;;;;;;;6.27;69.63;99088.16;5068504;28;20035;-69
2021/11/14 10:26:30;;;;;;;35.53;18.88;;;;;;;6.30;70.07;99089.56;5071135;28;20024;-70
2021/11/14 10:29:07;;;;;;;38.25;19.10;;;;;;;6.36;69.84;99088.53;5064933;28;20516;-70
2021/11/14 10:31:34;;;;;;;38.33;20.98;;;;;;;6.36;69.74;99091.25;5076222;28;20102;-70
2021/11/14 10:34:00;;;;;;;37.67;19.40;;;;;;;6.38;69.99;99089.09;5057136;28;20028;-68
2021/11/14 10:36:27;;;;;;;36.35;19.08;;;;;;;6.45;69.94;99095.19;5055864;28;20090;-68
2021/11/14 10:39:04;;;;;;;34.30;18.30;;;;;;;6.52;70.23;99098.56;5063427;28;20028;-68
2021/11/14 10:41:30;;;;;;;40.95;22.05;;;;;;;6.61;69.87;99109.81;5071724;28;20033;-68
2021/11/14 10:44:12;;;;;;;36.10;19.83;;;;;;;6.68;70.03;99099.56;5049217;28;20031;-68
2021/11/14 10:46:38;;;;;;;36.95;19.88;;;;;;;6.67;69.52;99097.91;5070210;28;20038;-68
2021/11/14 10:49:08;;;;;;;41.50;21.52;;;;;;;6.65;70.04;99105.50;5064446;28;20032;-68
2021/11/14 10:51:34;;;;;;;42.20;21.27;;;;;;;6.67;69.95;99108.00;5064888;28;20029;-68
2021/11/14 10:54:03;;;;;;;40.08;21.30;;;;;;;6.65;69.62;99101.97;5061093;28;20028;-67
2021/11/14 10:56:29;;;;;;;43.33;23.15;;;;;;;6.69;69.82;99103.13;5038293;28;20027;-68
2021/11/14 10:58:55;;;;;;;35.88;18.75;;;;;;;6.76;69.52;99111.91;5057162;28;20021;-68
2021/11/14 11:01:20;;;;;;;46.03;23.20;;;;;;;6.76;69.99;99106.44;5063404;28;20029;-66
2021/11/14 11:03:49;;;;;;;35.58;19.83;;;;;;;6.78;69.40;99098.84;5063817;28;20683;-67
2021/11/14 11:06:23;;;;;;;41.97;21.88;;;;;;;6.70;69.13;99110.22;5063804;28;20052;-68
2021/11/14 11:08:49;;;;;;;46.65;24.45;;;;;;;6.68;69.40;99106.91;5064691;28;20036;-66
2021/11/14 11:11:21;;;;;;;37.90;19.92;;;;;;;6.68;69.53;99105.00;5073297;28;20028;-67
2021/11/14 11:13:48;;;;;;;44.13;21.33;;;;;;;6.68;69.45;99098.75;5069782;28;20375;-67
2021/11/14 11:16:29;;;;;;;46.33;22.13;;;;;;;6.69;69.55;99098.47;5058003;28;20029;-67
2021/11/14 11:18:59;;;;;;;44.60;20.60;;;;;;;6.72;69.62;99096.31;5066024;28;20067;-67
2021/11/14 11:21:35;;;;;;;38.00;20.25;;;;;;;6.75;69.57;99099.34;5061638;28;20027;-67
2021/11/14 11:24:21;;;;;;;41.65;21.52;;;;;;;6.77;69.87;99091.75;5063183;28;20036;-68
2021/11/14 11:26:53;;;;;;;39.72;20.63;;;;;;;6.82;69.51;99096.44;5068910;28;20034;-68
2021/11/14 11:29:19;;;;;;;37.83;19.58;;;;;;;6.85;69.34;99106.84;5064058;28;20036;-68
2021/11/14 11:31:47;;;;;;;40.60;20.63;;;;;;;6.89;69.71;99107.97;5063268;28;20056;-67